createdAt,value
2023-03-18T00:01:10.750Z,-0.30
2023-03-18T00:03:39.207Z,-0.30
2023-03-18T00:06:19.005Z,-0.30
2023-03-18T00:08:50.353Z,-0.40
2023-03-18T00:11:20.170Z,-0.30
2023-03-18T00:13:49.251Z,-0.30
2023-03-18T00:16:17.507Z,-0.20
2023-03-18T00:18:45.522Z,-0.20
2023-03-18T00:21:17.065Z,-0.40
2023-03-18T00:23:45.098Z,-0.40
2023-03-18T00:26:12.898Z,-0.50
2023-03-18T00:28:43.097Z,-0.50
2023-03-18T00:31:13.810Z,-0.40
2023-03-18T00:33:46.227Z,-0.50
2023-03-18T00:36:16.546Z,-0.50
2023-03-18T00:38:46.125Z,-0.50
2023-03-18T00:41:16.153Z,-0.50
2023-03-18T00:43:47.361Z,-0.50
2023-03-18T00:46:18.034Z,-0.50
2023-03-18T00:48:47.199Z,-0.50
2023-03-18T00:51:17.145Z,-0.50
2023-03-18T00:53:48.795Z,-0.50
2023-03-18T00:56:18.335Z,-0.50
2023-03-18T00:58:47.726Z,-0.50
2023-03-18T01:01:17.162Z,-0.60
2023-03-18T01:03:46.267Z,-0.60
2023-03-18T01:06:17.734Z,-0.70
2023-03-18T01:08:45.794Z,-0.70
2023-03-18T01:11:13.684Z,-0.70
2023-03-18T01:13:41.538Z,-0.60
2023-03-18T01:16:10.029Z,-0.60
2023-03-18T01:18:38.910Z,-0.60
2023-03-18T01:21:07.613Z,-0.60
2023-03-18T01:23:39.649Z,-0.60
2023-03-18T01:26:10.986Z,-0.60
2023-03-18T01:28:42.461Z,-0.60
2023-03-18T01:31:10.364Z,-0.60
2023-03-18T01:33:38.158Z,-0.60
2023-03-18T01:36:06.449Z,-0.50
2023-03-18T01:38:34.646Z,-0.60
2023-03-18T01:41:11.444Z,-0.60
2023-03-18T01:43:42.986Z,-0.70
2023-03-18T01:46:30.442Z,-0.70
2023-03-18T01:48:59.071Z,-0.70
2023-03-18T01:51:27.574Z,-0.70
2023-03-18T01:53:59.513Z,-0.70
2023-03-18T01:56:27.895Z,-0.70
2023-03-18T01:58:57.658Z,-0.70
2023-03-18T02:01:33.422Z,-0.70
2023-03-18T02:04:09.208Z,-0.80
2023-03-18T02:06:39.653Z,-0.70
2023-03-18T02:09:08.649Z,-0.80
2023-03-18T02:11:39.641Z,-0.80
2023-03-18T02:14:11.783Z,-0.70
2023-03-18T02:16:51.346Z,-0.80
2023-03-18T02:19:48.143Z,-0.80
2023-03-18T02:22:33.215Z,-1.00
2023-03-18T02:25:02.762Z,-1.00
2023-03-18T02:27:35.669Z,-1.00
2023-03-18T02:30:10.424Z,-1.00
2023-03-18T02:32:41.405Z,-1.00
2023-03-18T02:35:11.757Z,-0.90
2023-03-18T02:37:40.742Z,-0.90
2023-03-18T02:40:22.069Z,-1.00
2023-03-18T02:42:50.157Z,-0.90
2023-03-18T02:45:45.745Z,-0.90
2023-03-18T02:48:18.586Z,-0.80
2023-03-18T02:50:47.622Z,-0.80
2023-03-18T02:53:15.513Z,-0.80
2023-03-18T02:55:43.967Z,-0.80
2023-03-18T02:58:12.320Z,-0.80
2023-03-18T03:00:41.065Z,-0.90
2023-03-18T03:03:08.973Z,-0.90
2023-03-18T03:05:38.252Z,-1.00
2023-03-18T03:08:07.044Z,-1.00
2023-03-18T03:10:39.470Z,-1.00
2023-03-18T03:13:10.030Z,-0.90
2023-03-18T03:15:41.733Z,-0.90
2023-03-18T03:18:10.453Z,-1.00
2023-03-18T03:20:39.150Z,-1.00
2023-03-18T03:23:10.159Z,-1.00
2023-03-18T03:25:38.818Z,-1.10
2023-03-18T03:28:08.660Z,-1.10
2023-03-18T03:30:36.881Z,-1.10
2023-03-18T03:33:05.687Z,-1.20
2023-03-18T03:35:34.457Z,-1.20
2023-03-18T03:38:03.330Z,-1.10
2023-03-18T03:40:31.420Z,-1.10
2023-03-18T03:42:59.689Z,-1.10
2023-03-18T03:45:27.635Z,-1.10
2023-03-18T03:47:55.381Z,-1.10
2023-03-18T03:50:23.715Z,-1.10
2023-03-18T03:52:52.985Z,-1.20
2023-03-18T03:55:21.880Z,-1.20
2023-03-18T03:57:50.424Z,-1.20
2023-03-18T04:00:21.580Z,-1.10
2023-03-18T04:02:52.327Z,-1.10
2023-03-18T04:05:24.653Z,-1.20
2023-03-18T04:07:54.030Z,-1.20
2023-03-18T04:10:34.936Z,-1.30
2023-03-18T04:13:04.547Z,-1.30
2023-03-18T04:15:32.622Z,-1.20
2023-03-18T04:18:07.334Z,-1.20
2023-03-18T04:20:39.810Z,-1.30
2023-03-18T04:23:16.193Z,-1.30
2023-03-18T04:25:44.600Z,-1.30
2023-03-18T04:28:12.711Z,-1.30
2023-03-18T04:30:40.729Z,-1.30
2023-03-18T04:33:16.193Z,-1.40
2023-03-18T04:35:44.222Z,-1.30
2023-03-18T04:38:14.434Z,-1.30
2023-03-18T04:40:43.035Z,-1.20
2023-03-18T04:43:11.369Z,-1.20
2023-03-18T04:45:40.122Z,-1.20
2023-03-18T04:48:07.973Z,-1.20
2023-03-18T04:50:40.511Z,-1.20
2023-03-18T04:53:11.851Z,-1.30
2023-03-18T04:55:51.940Z,-1.20
2023-03-18T04:58:24.677Z,-1.30
2023-03-18T05:01:08.358Z,-1.30
2023-03-18T05:03:39.046Z,-1.30
2023-03-18T05:06:08.446Z,-1.30
2023-03-18T05:08:49.415Z,-1.30
2023-03-18T05:11:18.983Z,-1.30
2023-03-18T05:13:47.787Z,-1.30
2023-03-18T05:16:18.675Z,-1.30
2023-03-18T05:18:49.279Z,-1.30
2023-03-18T05:21:17.226Z,-1.20
2023-03-18T05:23:47.853Z,-1.30
2023-03-18T05:26:17.275Z,-1.30
2023-03-18T05:28:47.473Z,-1.30
2023-03-18T05:31:26.988Z,-1.30
2023-03-18T05:33:54.836Z,-1.30
2023-03-18T05:36:24.645Z,-1.20
2023-03-18T05:39:01.605Z,-1.20
2023-03-18T05:41:31.118Z,-1.10
2023-03-18T05:43:59.098Z,-1.10
2023-03-18T05:46:29.109Z,-1.10
2023-03-18T05:49:13.026Z,-1.00
2023-03-18T05:51:55.119Z,-1.00
2023-03-18T05:54:34.796Z,-1.00
2023-03-18T05:57:03.172Z,-1.00
2023-03-18T05:59:31.593Z,-1.00
2023-03-18T06:02:01.714Z,-0.90
2023-03-18T06:04:29.714Z,-0.80
2023-03-18T06:07:01.420Z,-0.80
2023-03-18T06:09:29.317Z,-0.80
2023-03-18T06:11:58.866Z,-0.70
2023-03-18T06:14:29.528Z,-0.70
2023-03-18T06:17:01.253Z,-0.70
2023-03-18T06:19:30.837Z,-0.80
2023-03-18T06:21:59.049Z,-0.60
2023-03-18T06:24:31.846Z,-0.10
2023-03-18T06:26:59.985Z,0.20
2023-03-18T06:29:28.017Z,0.50
2023-03-18T06:32:00.141Z,0.60
2023-03-18T06:34:29.572Z,0.90
2023-03-18T06:36:57.312Z,1.10
2023-03-18T06:39:28.664Z,1.30
2023-03-18T06:41:56.685Z,1.70
2023-03-18T06:44:32.302Z,1.90
2023-03-18T06:47:10.070Z,2.00
2023-03-18T06:49:41.375Z,2.00
2023-03-18T06:52:15.536Z,2.30
2023-03-18T06:54:46.809Z,2.50
2023-03-18T06:57:16.854Z,2.40
2023-03-18T06:59:45.641Z,2.50
2023-03-18T07:02:35.624Z,2.30
2023-03-18T07:05:05.322Z,2.30
2023-03-18T07:07:37.708Z,2.30
2023-03-18T07:10:08.723Z,2.50
2023-03-18T07:12:37.097Z,2.60
2023-03-18T07:15:14.780Z,3.10
2023-03-18T07:17:44.360Z,3.00
2023-03-18T07:20:14.083Z,3.10
2023-03-18T07:22:44.010Z,3.40
2023-03-18T07:25:11.886Z,3.50
2023-03-18T07:27:40.828Z,3.70
2023-03-18T07:30:12.227Z,3.90
2023-03-18T07:32:40.405Z,4.00
2023-03-18T07:35:10.852Z,4.30
2023-03-18T07:37:40.358Z,4.30
2023-03-18T07:40:10.221Z,4.30
2023-03-18T07:42:39.347Z,4.30
2023-03-18T07:45:10.702Z,4.40
2023-03-18T07:47:38.859Z,4.40
2023-03-18T07:50:07.567Z,4.40
2023-03-18T07:52:35.789Z,4.20
2023-03-18T07:55:05.325Z,4.40
2023-03-18T07:57:33.171Z,4.90
2023-03-18T08:00:03.215Z,5.20
2023-03-18T08:02:45.596Z,5.50
2023-03-18T08:05:14.909Z,5.70
2023-03-18T08:07:42.890Z,5.90
2023-03-18T08:10:16.355Z,6.10
2023-03-18T08:12:52.979Z,6.50
2023-03-18T08:15:28.461Z,6.60
2023-03-18T08:17:57.612Z,6.60
2023-03-18T08:20:25.486Z,6.60
2023-03-18T08:22:54.825Z,6.70
2023-03-18T08:25:25.544Z,6.60
2023-03-18T08:27:53.627Z,6.90
2023-03-18T08:30:25.493Z,7.00
2023-03-18T08:32:53.248Z,7.20
2023-03-18T08:35:23.587Z,7.80
2023-03-18T08:38:00.368Z,7.80
2023-03-18T08:40:28.483Z,8.10
2023-03-18T08:42:56.820Z,8.30
2023-03-18T08:45:24.922Z,8.40
2023-03-18T08:47:53.853Z,8.90
2023-03-18T08:50:23.855Z,9.30
2023-03-18T08:52:56.472Z,9.60
2023-03-18T08:55:32.559Z,10.00
2023-03-18T08:58:05.619Z,10.30
2023-03-18T09:00:39.398Z,10.40
2023-03-18T09:03:07.677Z,10.00
2023-03-18T09:05:35.758Z,10.10
2023-03-18T09:08:03.982Z,10.30
2023-03-18T09:10:31.733Z,10.70
2023-03-18T09:13:01.063Z,10.90
2023-03-18T09:15:28.826Z,10.70
2023-03-18T09:18:10.267Z,11.20
2023-03-18T09:20:39.285Z,11.10
2023-03-18T09:23:10.393Z,11.50
2023-03-18T09:25:38.830Z,12.00
2023-03-18T09:28:06.626Z,12.10
2023-03-18T09:30:34.496Z,11.90
2023-03-18T09:33:02.386Z,12.50
2023-03-18T09:35:32.935Z,12.80
2023-03-18T09:38:01.404Z,12.60
2023-03-18T09:40:38.044Z,13.20
2023-03-18T09:43:22.998Z,13.00
2023-03-18T09:46:00.124Z,12.80
2023-03-18T09:48:50.164Z,13.20
2023-03-18T09:51:39.466Z,14.10
2023-03-18T09:54:35.122Z,14.60
2023-03-18T09:57:11.334Z,14.60
2023-03-18T09:59:46.587Z,14.80
2023-03-18T10:02:45.657Z,15.00
2023-03-18T10:05:40.894Z,14.90
2023-03-18T10:08:36.223Z,15.30
2023-03-18T10:11:13.789Z,15.90
2023-03-18T10:14:32.694Z,15.70
2023-03-18T10:17:25.589Z,15.30
2023-03-18T10:20:04.512Z,15.50
2023-03-18T10:22:50.772Z,15.40
2023-03-18T10:25:29.593Z,15.80
2023-03-18T10:28:12.677Z,15.90
2023-03-18T10:31:10.831Z,15.20
2023-03-18T10:34:02.196Z,16.00
2023-03-18T10:36:45.154Z,16.80
2023-03-18T10:39:19.526Z,17.30
2023-03-18T10:41:52.760Z,17.60
2023-03-18T10:44:34.170Z,17.90
2023-03-18T10:47:20.029Z,18.40
2023-03-18T10:49:59.885Z,18.70
2023-03-18T10:52:34.155Z,19.00
2023-03-18T10:55:15.587Z,19.40
2023-03-18T10:57:44.654Z,20.50
2023-03-18T11:00:29.346Z,21.00
2023-03-18T11:02:57.293Z,21.10
2023-03-18T11:05:38.018Z,21.60
2023-03-18T11:08:28.851Z,21.30
2023-03-18T11:11:00.342Z,21.40
2023-03-18T11:13:30.456Z,22.70
2023-03-18T11:15:58.720Z,22.30
2023-03-18T11:18:27.647Z,22.40
2023-03-18T11:21:01.233Z,22.30
2023-03-18T11:23:48.818Z,21.80
2023-03-18T11:26:30.243Z,21.40
2023-03-18T11:29:04.718Z,21.10
2023-03-18T11:31:32.605Z,20.50
2023-03-18T11:34:08.823Z,21.20
2023-03-18T11:36:38.014Z,21.40
2023-03-18T11:39:07.039Z,20.20
2023-03-18T11:41:39.880Z,21.00
2023-03-18T11:44:20.342Z,21.20
2023-03-18T11:46:53.785Z,21.30
2023-03-18T11:49:29.623Z,21.20
2023-03-18T11:52:24.807Z,21.50
2023-03-18T11:55:14.015Z,21.60
2023-03-18T11:58:03.705Z,21.30
2023-03-18T12:00:46.808Z,21.50
2023-03-18T12:03:56.425Z,21.10
2023-03-18T12:06:26.583Z,21.70
2023-03-18T12:09:18.170Z,21.40
2023-03-18T12:12:15.785Z,21.40
2023-03-18T12:15:36.464Z,21.20
2023-03-18T12:18:09.698Z,21.30
2023-03-18T12:20:51.583Z,21.30
2023-03-18T12:24:04.252Z,20.90
2023-03-18T12:26:46.587Z,20.00
2023-03-18T12:30:00.396Z,19.80
2023-03-18T12:32:38.195Z,20.20
2023-03-18T12:35:25.323Z,19.70
2023-03-18T12:38:13.556Z,19.60
2023-03-18T12:41:06.742Z,19.70
2023-03-18T12:44:03.685Z,19.40
2023-03-18T12:46:43.080Z,19.90
2023-03-18T12:49:18.488Z,20.10
2023-03-18T12:51:54.330Z,20.00
2023-03-18T12:54:31.170Z,19.90
2023-03-18T12:57:31.829Z,19.60
2023-03-18T13:00:06.732Z,19.40
2023-03-18T13:02:39.124Z,19.30
2023-03-18T13:05:56.094Z,19.50
2023-03-18T13:09:10.010Z,19.60
2023-03-18T13:11:46.864Z,19.80
2023-03-18T13:14:39.223Z,20.10
2023-03-18T13:17:14.876Z,20.20
2023-03-18T13:19:44.574Z,20.40
2023-03-18T13:22:42.742Z,20.30
2023-03-18T13:25:46.728Z,20.50
2023-03-18T13:28:40.406Z,20.10
2023-03-18T13:31:38.443Z,20.20
2023-03-18T13:34:27.842Z,20.30
2023-03-18T13:36:55.907Z,20.60
2023-03-18T13:39:43.473Z,20.30
2023-03-18T13:42:26.138Z,20.40
2023-03-18T13:45:09.329Z,20.40
2023-03-18T13:47:39.900Z,20.50
2023-03-18T13:50:20.043Z,20.20
2023-03-18T13:52:48.967Z,20.30
2023-03-18T13:55:42.994Z,20.10
2023-03-18T13:58:52.738Z,20.00
2023-03-18T14:01:36.503Z,19.80
2023-03-18T14:04:20.553Z,19.70
2023-03-18T14:06:57.724Z,19.60
2023-03-18T14:09:46.223Z,19.40
2023-03-18T14:12:43.270Z,19.10
2023-03-18T14:15:13.187Z,19.30
2023-03-18T14:18:08.602Z,19.40
2023-03-18T14:20:42.294Z,19.30
2023-03-18T14:23:54.242Z,19.00
2023-03-18T14:27:05.627Z,19.10
2023-03-18T14:30:14.640Z,19.20
2023-03-18T14:33:05.790Z,18.20
2023-03-18T14:35:56.264Z,18.20
2023-03-18T14:38:59.605Z,18.50
2023-03-18T14:41:29.618Z,18.70
2023-03-18T14:44:36.144Z,18.60
2023-03-18T14:47:37.838Z,18.80
2023-03-18T14:50:19.132Z,18.80
2023-03-18T14:53:00.388Z,18.40
2023-03-18T14:55:35.524Z,18.20
2023-03-18T14:58:05.490Z,18.20
2023-03-18T15:00:38.315Z,18.40
2023-03-18T15:03:31.336Z,18.50
2023-03-18T15:06:02.457Z,18.30
2023-03-18T15:08:47.169Z,18.00
2023-03-18T15:11:16.952Z,17.80
2023-03-18T15:13:47.538Z,17.70
2023-03-18T15:16:22.683Z,17.60
2023-03-18T15:18:55.581Z,17.30
2023-03-18T15:21:33.441Z,17.30
2023-03-18T15:24:07.665Z,17.00
2023-03-18T15:26:37.612Z,17.00
2023-03-18T15:29:26.496Z,16.80
2023-03-18T15:32:10.354Z,16.60
2023-03-18T15:34:46.924Z,16.50
2023-03-18T15:37:23.959Z,16.50
2023-03-18T15:39:55.930Z,16.30
2023-03-18T15:42:25.126Z,16.20
2023-03-18T15:45:00.946Z,16.10
2023-03-18T15:47:31.796Z,16.10
2023-03-18T15:50:01.299Z,15.60
2023-03-18T15:52:33.935Z,15.40
2023-03-18T15:55:02.600Z,15.10
2023-03-18T15:57:39.600Z,15.00
2023-03-18T16:00:09.862Z,14.60
2023-03-18T16:02:41.876Z,13.80
2023-03-18T16:05:20.418Z,13.30
2023-03-18T16:07:49.003Z,13.20
2023-03-18T16:10:20.479Z,12.80
2023-03-18T16:13:05.167Z,12.50
2023-03-18T16:15:33.266Z,12.20
2023-03-18T16:18:01.157Z,12.00
2023-03-18T16:20:31.590Z,11.90
2023-03-18T16:22:59.962Z,11.80
2023-03-18T16:25:28.416Z,11.60
2023-03-18T16:27:59.012Z,11.50
2023-03-18T16:30:29.184Z,11.40
2023-03-18T16:32:58.250Z,11.40
2023-03-18T16:35:31.047Z,11.20
2023-03-18T16:38:00.698Z,11.10
2023-03-18T16:40:30.884Z,11.10
2023-03-18T16:42:58.866Z,11.00
2023-03-18T16:45:35.026Z,11.00
2023-03-18T16:48:07.052Z,11.10
2023-03-18T16:50:38.078Z,11.20
2023-03-18T16:53:14.003Z,11.10
2023-03-18T16:55:41.754Z,11.00
2023-03-18T16:58:14.370Z,10.70
2023-03-18T17:00:46.810Z,10.60
2023-03-18T17:03:18.123Z,10.60
2023-03-18T17:05:50.458Z,10.60
2023-03-18T17:08:22.278Z,10.50
2023-03-18T17:10:53.092Z,10.50
2023-03-18T17:13:31.425Z,10.40
2023-03-18T17:15:59.852Z,10.30
2023-03-18T17:18:28.540Z,10.30
2023-03-18T17:20:56.241Z,10.00
2023-03-18T17:23:27.131Z,9.80
2023-03-18T17:25:56.995Z,9.60
2023-03-18T17:28:35.388Z,9.40
2023-03-18T17:31:03.991Z,8.90
2023-03-18T17:33:35.694Z,8.70
2023-03-18T17:36:05.100Z,8.70
2023-03-18T17:38:35.001Z,8.70
2023-03-18T17:41:05.743Z,8.70
2023-03-18T17:43:37.290Z,8.50
2023-03-18T17:46:06.233Z,8.40
2023-03-18T17:48:36.445Z,8.40
2023-03-18T17:51:26.850Z,8.30
2023-03-18T17:53:59.174Z,8.20
2023-03-18T17:56:27.978Z,8.10
2023-03-18T17:58:56.112Z,8.10
2023-03-18T18:01:30.736Z,8.00
2023-03-18T18:04:02.087Z,8.00
2023-03-18T18:06:30.338Z,7.90
2023-03-18T18:09:03.182Z,7.80
2023-03-18T18:11:34.718Z,7.60
2023-03-18T18:14:21.951Z,7.50
2023-03-18T18:16:50.694Z,7.40
2023-03-18T18:19:22.473Z,7.30
2023-03-18T18:21:52.138Z,7.40
2023-03-18T18:24:22.422Z,7.30
2023-03-18T18:26:50.966Z,7.20
2023-03-18T18:29:28.268Z,7.10
2023-03-18T18:31:57.478Z,6.90
2023-03-18T18:34:25.623Z,6.70
2023-03-18T18:36:53.629Z,6.50
2023-03-18T18:39:21.554Z,6.40
2023-03-18T18:41:49.554Z,6.30
2023-03-18T18:44:19.161Z,6.20
2023-03-18T18:46:47.050Z,6.10
2023-03-18T18:49:22.555Z,6.20
2023-03-18T18:51:53.469Z,6.10
2023-03-18T18:54:22.756Z,6.10
2023-03-18T18:56:51.240Z,6.00
2023-03-18T18:59:32.288Z,5.90
2023-03-18T19:02:01.179Z,5.70
2023-03-18T19:04:29.273Z,5.50
2023-03-18T19:06:58.136Z,5.40
2023-03-18T19:09:26.599Z,5.30
2023-03-18T19:11:56.331Z,5.30
2023-03-18T19:14:27.295Z,5.30
2023-03-18T19:16:58.546Z,5.30
2023-03-18T19:19:29.165Z,5.20
2023-03-18T19:21:57.630Z,5.20
2023-03-18T19:24:31.610Z,5.10
2023-03-18T19:27:02.296Z,4.90
2023-03-18T19:29:32.593Z,4.70
2023-03-18T19:32:01.407Z,4.60
2023-03-18T19:34:31.002Z,4.60
2023-03-18T19:36:58.768Z,4.60
2023-03-18T19:39:27.934Z,4.60
2023-03-18T19:41:55.725Z,4.40
2023-03-18T19:44:25.594Z,4.30
2023-03-18T19:46:59.343Z,4.30
2023-03-18T19:49:28.599Z,4.30
2023-03-18T19:51:57.229Z,4.20
2023-03-18T19:54:34.007Z,4.10
2023-03-18T19:57:11.471Z,4.00
2023-03-18T19:59:39.998Z,4.00
2023-03-18T20:02:27.941Z,3.80
2023-03-18T20:05:01.166Z,3.70
2023-03-18T20:07:32.654Z,3.70
2023-03-18T20:10:00.499Z,3.70
2023-03-18T20:12:41.076Z,3.50
2023-03-18T20:15:24.845Z,3.50
2023-03-18T20:17:53.903Z,3.50
2023-03-18T20:20:24.053Z,3.40
2023-03-18T20:22:53.546Z,3.40
2023-03-18T20:25:29.124Z,3.30
2023-03-18T20:27:58.136Z,3.30
2023-03-18T20:30:30.569Z,3.20
2023-03-18T20:32:58.765Z,3.10
2023-03-18T20:35:28.926Z,3.20
2023-03-18T20:37:59.274Z,3.20
2023-03-18T20:40:29.630Z,3.20
2023-03-18T20:42:57.858Z,2.90
2023-03-18T20:45:26.883Z,2.80
2023-03-18T20:47:54.611Z,2.80
2023-03-18T20:50:28.508Z,2.90
2023-03-18T20:52:56.439Z,2.90
2023-03-18T20:55:33.101Z,3.00
2023-03-18T20:58:02.210Z,2.90
2023-03-18T21:00:33.181Z,2.80
2023-03-18T21:03:03.054Z,2.60
2023-03-18T21:05:31.088Z,2.60
2023-03-18T21:07:59.038Z,2.50
2023-03-18T21:10:27.799Z,2.60
2023-03-18T21:12:55.654Z,2.70
2023-03-18T21:15:26.138Z,2.70
2023-03-18T21:17:54.209Z,2.60
2023-03-18T21:20:27.221Z,2.40
2023-03-18T21:22:56.481Z,2.30
2023-03-18T21:25:26.918Z,2.20
2023-03-18T21:27:55.088Z,2.10
2023-03-18T21:30:23.926Z,2.00
2023-03-18T21:32:51.868Z,2.00
2023-03-18T21:35:27.021Z,2.00
2023-03-18T21:37:55.613Z,2.00
2023-03-18T21:40:25.012Z,1.90
2023-03-18T21:42:53.015Z,2.00
2023-03-18T21:45:23.780Z,2.00
2023-03-18T21:47:52.737Z,1.90
2023-03-18T21:50:24.060Z,1.70
2023-03-18T21:52:53.706Z,1.70
2023-03-18T21:55:22.146Z,1.80
2023-03-18T21:57:49.831Z,1.60
2023-03-18T22:00:20.236Z,1.60
2023-03-18T22:02:48.081Z,1.70
2023-03-18T22:05:22.873Z,1.70
2023-03-18T22:07:52.221Z,1.70
2023-03-18T22:10:23.241Z,1.40
2023-03-18T22:12:51.353Z,1.20
2023-03-18T22:15:25.608Z,1.40
2023-03-18T22:17:56.640Z,1.40
2023-03-18T22:20:24.379Z,1.40
2023-03-18T22:22:52.179Z,1.40
2023-03-18T22:25:39.667Z,1.30
2023-03-18T22:28:07.491Z,1.20
2023-03-18T22:30:35.822Z,1.30
2023-03-18T22:33:05.658Z,1.30
2023-03-18T22:35:34.273Z,1.20
2023-03-18T22:38:02.348Z,1.10
2023-03-18T22:40:31.838Z,1.20
2023-03-18T22:43:01.580Z,1.30
2023-03-18T22:45:31.570Z,1.20
2023-03-18T22:48:07.421Z,1.30
2023-03-18T22:50:35.650Z,1.30
2023-03-18T22:53:08.917Z,1.20
2023-03-18T22:55:39.424Z,1.30
2023-03-18T22:58:13.333Z,1.30
2023-03-18T23:00:43.789Z,1.30
2023-03-18T23:03:18.492Z,1.10
2023-03-18T23:05:48.186Z,1.10
2023-03-18T23:08:16.187Z,1.00
2023-03-18T23:10:44.681Z,0.90
2023-03-18T23:13:36.802Z,0.90
2023-03-18T23:16:06.822Z,0.80
2023-03-18T23:18:35.215Z,0.70
2023-03-18T23:21:03.033Z,0.80
2023-03-18T23:23:30.853Z,0.90
2023-03-18T23:25:58.620Z,0.90
2023-03-18T23:28:26.584Z,1.00
2023-03-18T23:30:54.303Z,0.80
2023-03-18T23:33:21.982Z,0.80
2023-03-18T23:35:49.728Z,0.80
2023-03-18T23:38:17.866Z,0.80
2023-03-18T23:40:45.804Z,0.80
2023-03-18T23:43:13.659Z,0.80
2023-03-18T23:45:41.634Z,0.80
2023-03-18T23:48:09.398Z,0.80
2023-03-18T23:50:37.177Z,0.90
2023-03-18T23:53:04.870Z,0.90
2023-03-18T23:55:35.161Z,0.80
2023-03-18T23:58:03.864Z,0.80
